Terminal Aerodrome Forecast
Issued by NWS

Home | Current Version | Previous Version | Text Only | Print | Product List | Glossary On
Versions: 1 2 3 4 5 6 7 8 9 10 11 12 13
000
FTUS42 KJAX 152300 RRA
TAFCRG
TAF
KCRG 152341Z 1600/1624 VRB06KT P6SM VCTS SCT030CB BKN050
      TEMPO 1600/1601 5SM -RA BKN030
     FM160100 24004KT P6SM SCT100 BKN200
     FM161500 28008KT P6SM SCT030 BKN150 PROB30 1620/1624 VRB15G25KT
      2SM TSRA BKN025CB=

USA.gov is the U.S. government's official web portal to all federal, state and local government web resources and services.